sensor_id;sensor_type;location;lat;lon;timestamp;temperature;humidity
9951;DHT22;24074;49.254;6.702;2022-12-15T00:00:44;-1.00;99.90
9951;DHT22;24074;49.254;6.702;2022-12-15T00:03:28;-1.10;99.90
9951;DHT22;24074;49.254;6.702;2022-12-15T00:06:12;-1.00;99.90
9951;DHT22;24074;49.254;6.702;2022-12-15T00:08:57;-0.90;99.90
9951;DHT22;24074;49.254;6.702;2022-12-15T00:11:40;-0.90;99.90
9951;DHT22;24074;49.254;6.702;2022-12-15T00:14:25;-1.00;99.90
9951;DHT22;24074;49.254;6.702;2022-12-15T00:17:09;-1.00;99.90
9951;DHT22;24074;49.254;6.702;2022-12-15T00:19:53;-1.10;99.90
9951;DHT22;24074;49.254;6.702;2022-12-15T00:22:37;-1.10;99.90
9951;DHT22;24074;49.254;6.702;2022-12-15T00:25:21;-1.10;99.90
9951;DHT22;24074;49.254;6.702;2022-12-15T00:28:06;-1.20;99.90
9951;DHT22;24074;49.254;6.702;2022-12-15T00:30:50;-1.10;99.90
9951;DHT22;24074;49.254;6.702;2022-12-15T00:33:34;-1.10;99.90
9951;DHT22;24074;49.254;6.702;2022-12-15T00:36:19;-1.20;99.90
9951;DHT22;24074;49.254;6.702;2022-12-15T00:39:03;-1.20;99.90
9951;DHT22;24074;49.254;6.702;2022-12-15T00:41:28;-1.30;99.90
9951;DHT22;24074;49.254;6.702;2022-12-15T00:43:54;-1.30;99.90
9951;DHT22;24074;49.254;6.702;2022-12-15T00:46:19;-1.30;99.90
9951;DHT22;24074;49.254;6.702;2022-12-15T00:49:03;-1.20;99.90
9951;DHT22;24074;49.254;6.702;2022-12-15T00:51:49;-1.20;99.90
9951;DHT22;24074;49.254;6.702;2022-12-15T00:54:33;-1.30;99.90
9951;DHT22;24074;49.254;6.702;2022-12-15T00:57:17;-1.20;99.90
9951;DHT22;24074;49.254;6.702;2022-12-15T01:00:01;-1.30;99.90
9951;DHT22;24074;49.254;6.702;2022-12-15T01:02:45;-1.30;99.90
9951;DHT22;24074;49.254;6.702;2022-12-15T01:05:29;-1.40;99.90
9951;DHT22;24074;49.254;6.702;2022-12-15T01:08:13;-1.50;99.90
9951;DHT22;24074;49.254;6.702;2022-12-15T01:10:59;-1.60;99.90
9951;DHT22;24074;49.254;6.702;2022-12-15T01:13:43;-1.50;99.90
9951;DHT22;24074;49.254;6.702;2022-12-15T01:16:27;-1.30;99.90
9951;DHT22;24074;49.254;6.702;2022-12-15T01:19:11;-1.30;99.90
9951;DHT22;24074;49.254;6.702;2022-12-15T01:21:55;-1.40;99.90
9951;DHT22;24074;49.254;6.702;2022-12-15T01:24:21;-1.40;99.90
9951;DHT22;24074;49.254;6.702;2022-12-15T01:26:46;-1.30;99.90
9951;DHT22;24074;49.254;6.702;2022-12-15T01:29:12;-1.30;99.90
9951;DHT22;24074;49.254;6.702;2022-12-15T01:31:38;-1.30;99.90
9951;DHT22;24074;49.254;6.702;2022-12-15T01:34:03;-1.40;99.90
9951;DHT22;24074;49.254;6.702;2022-12-15T01:36:29;-1.40;99.90
9951;DHT22;24074;49.254;6.702;2022-12-15T01:38:55;-1.40;99.90
9951;DHT22;24074;49.254;6.702;2022-12-15T01:41:20;-1.50;99.90
9951;DHT22;24074;49.254;6.702;2022-12-15T01:43:46;-1.50;99.90
9951;DHT22;24074;49.254;6.702;2022-12-15T01:46:18;-1.50;99.90
9951;DHT22;24074;49.254;6.702;2022-12-15T01:49:28;-1.60;99.90
9951;DHT22;24074;49.254;6.702;2022-12-15T01:51:39;-1.50;99.90
9951;DHT22;24074;49.254;6.702;2022-12-15T01:54:11;-1.60;99.90
9951;DHT22;24074;49.254;6.702;2022-12-15T01:56:44;-1.70;99.90
9951;DHT22;24074;49.254;6.702;2022-12-15T01:59:14;-1.70;99.90
9951;DHT22;24074;49.254;6.702;2022-12-15T02:01:40;-1.70;99.90
9951;DHT22;24074;49.254;6.702;2022-12-15T02:04:07;-1.80;99.90
9951;DHT22;24074;49.254;6.702;2022-12-15T02:06:34;-1.70;99.90
9951;DHT22;24074;49.254;6.702;2022-12-15T02:09:00;-1.60;99.90
9951;DHT22;24074;49.254;6.702;2022-12-15T02:13:58;-1.70;99.90
9951;DHT22;24074;49.254;6.702;2022-12-15T02:16:37;-1.80;99.90
9951;DHT22;24074;49.254;6.702;2022-12-15T02:25:08;-1.70;99.90
9951;DHT22;24074;49.254;6.702;2022-12-15T02:30:44;-1.50;99.90
9951;DHT22;24074;49.254;6.702;2022-12-15T02:33:22;-1.40;99.90
9951;DHT22;24074;49.254;6.702;2022-12-15T02:35:59;-1.40;99.90
9951;DHT22;24074;49.254;6.702;2022-12-15T02:38:31;-1.50;99.90
9951;DHT22;24074;49.254;6.702;2022-12-15T02:40:58;-1.40;99.90
9951;DHT22;24074;49.254;6.702;2022-12-15T02:43:24;-1.40;99.90
9951;DHT22;24074;49.254;6.702;2022-12-15T02:49:15;-1.50;99.90
9951;DHT22;24074;49.254;6.702;2022-12-15T02:57:19;-1.70;99.90
9951;DHT22;24074;49.254;6.702;2022-12-15T02:59:59;-1.80;99.90
9951;DHT22;24074;49.254;6.702;2022-12-15T03:02:29;-1.80;99.90
9951;DHT22;24074;49.254;6.702;2022-12-15T03:04:56;-2.00;99.90
9951;DHT22;24074;49.254;6.702;2022-12-15T03:07:22;-2.20;99.90
9951;DHT22;24074;49.254;6.702;2022-12-15T03:09:49;-2.40;99.90
9951;DHT22;24074;49.254;6.702;2022-12-15T03:12:15;-2.60;99.90
9951;DHT22;24074;49.254;6.702;2022-12-15T03:14:40;-2.80;99.90
9951;DHT22;24074;49.254;6.702;2022-12-15T03:17:06;-2.80;99.90
9951;DHT22;24074;49.254;6.702;2022-12-15T03:19:32;-2.90;99.90
9951;DHT22;24074;49.254;6.702;2022-12-15T03:21:57;-3.00;99.90
9951;DHT22;24074;49.254;6.702;2022-12-15T03:24:23;-2.90;99.90
9951;DHT22;24074;49.254;6.702;2022-12-15T03:26:48;-3.00;99.90
9951;DHT22;24074;49.254;6.702;2022-12-15T03:29:16;-3.00;99.90
9951;DHT22;24074;49.254;6.702;2022-12-15T03:31:42;-3.10;99.90
9951;DHT22;24074;49.254;6.702;2022-12-15T03:34:09;-3.00;99.90
9951;DHT22;24074;49.254;6.702;2022-12-15T03:36:34;-3.00;99.90
9951;DHT22;24074;49.254;6.702;2022-12-15T03:39:00;-3.00;99.90
9951;DHT22;24074;49.254;6.702;2022-12-15T03:41:25;-2.90;99.90
9951;DHT22;24074;49.254;6.702;2022-12-15T03:43:51;-2.90;99.90
9951;DHT22;24074;49.254;6.702;2022-12-15T03:46:16;-2.80;99.90
9951;DHT22;24074;49.254;6.702;2022-12-15T03:48:42;-2.80;99.90
9951;DHT22;24074;49.254;6.702;2022-12-15T03:51:07;-2.80;99.90
9951;DHT22;24074;49.254;6.702;2022-12-15T03:53:33;-2.80;99.90
9951;DHT22;24074;49.254;6.702;2022-12-15T03:55:59;-2.70;99.90
9951;DHT22;24074;49.254;6.702;2022-12-15T03:58:24;-2.60;99.90
9951;DHT22;24074;49.254;6.702;2022-12-15T04:00:50;-2.40;99.90
9951;DHT22;24074;49.254;6.702;2022-12-15T04:03:15;-2.40;99.90
9951;DHT22;24074;49.254;6.702;2022-12-15T04:05:41;-2.20;99.90
9951;DHT22;24074;49.254;6.702;2022-12-15T04:08:06;-2.20;99.90
9951;DHT22;24074;49.254;6.702;2022-12-15T04:10:33;-2.20;99.90
9951;DHT22;24074;49.254;6.702;2022-12-15T04:13:06;-2.10;99.90
9951;DHT22;24074;49.254;6.702;2022-12-15T04:15:33;-2.10;99.90
9951;DHT22;24074;49.254;6.702;2022-12-15T04:18:05;-2.10;99.90
9951;DHT22;24074;49.254;6.702;2022-12-15T04:20:31;-2.10;99.90
9951;DHT22;24074;49.254;6.702;2022-12-15T04:22:57;-2.10;99.90
9951;DHT22;24074;49.254;6.702;2022-12-15T04:25:25;-2.20;99.90
9951;DHT22;24074;49.254;6.702;2022-12-15T04:28:10;-2.20;99.90
9951;DHT22;24074;49.254;6.702;2022-12-15T04:31:01;-2.30;99.90
9951;DHT22;24074;49.254;6.702;2022-12-15T04:33:51;-2.40;99.90
9951;DHT22;24074;49.254;6.702;2022-12-15T04:36:37;-2.50;99.90
9951;DHT22;24074;49.254;6.702;2022-12-15T04:39:23;-2.60;99.90
9951;DHT22;24074;49.254;6.702;2022-12-15T04:42:07;-2.70;99.90
9951;DHT22;24074;49.254;6.702;2022-12-15T04:44:52;-2.70;99.90
9951;DHT22;24074;49.254;6.702;2022-12-15T04:47:39;-2.80;99.90
9951;DHT22;24074;49.254;6.702;2022-12-15T04:50:23;-2.80;99.90
9951;DHT22;24074;49.254;6.702;2022-12-15T04:53:13;-2.70;99.90
9951;DHT22;24074;49.254;6.702;2022-12-15T04:55:58;-2.80;99.90
9951;DHT22;24074;49.254;6.702;2022-12-15T04:58:42;-2.70;99.90
9951;DHT22;24074;49.254;6.702;2022-12-15T05:01:26;-2.80;99.90
9951;DHT22;24074;49.254;6.702;2022-12-15T05:04:10;-2.80;99.90
9951;DHT22;24074;49.254;6.702;2022-12-15T05:06:54;-2.90;99.90
9951;DHT22;24074;49.254;6.702;2022-12-15T05:09:38;-2.80;99.90
9951;DHT22;24074;49.254;6.702;2022-12-15T05:12:23;-2.80;99.90
9951;DHT22;24074;49.254;6.702;2022-12-15T05:15:07;-2.80;99.90
9951;DHT22;24074;49.254;6.702;2022-12-15T05:17:51;-2.70;99.90
9951;DHT22;24074;49.254;6.702;2022-12-15T05:20:35;-2.70;99.90
9951;DHT22;24074;49.254;6.702;2022-12-15T05:23:19;-2.60;99.90
9951;DHT22;24074;49.254;6.702;2022-12-15T05:26:03;-2.80;99.90
9951;DHT22;24074;49.254;6.702;2022-12-15T05:28:48;-2.70;99.90
9951;DHT22;24074;49.254;6.702;2022-12-15T05:31:32;-2.90;99.90
9951;DHT22;24074;49.254;6.702;2022-12-15T05:34:28;-3.00;99.90
9951;DHT22;24074;49.254;6.702;2022-12-15T05:36:55;-3.10;99.90
9951;DHT22;24074;49.254;6.702;2022-12-15T05:39:22;-3.10;99.90
9951;DHT22;24074;49.254;6.702;2022-12-15T05:41:50;-3.00;99.90
9951;DHT22;24074;49.254;6.702;2022-12-15T05:44:16;-3.00;99.90
9951;DHT22;24074;49.254;6.702;2022-12-15T05:46:41;-3.10;99.90
9951;DHT22;24074;49.254;6.702;2022-12-15T05:49:08;-3.10;99.90
9951;DHT22;24074;49.254;6.702;2022-12-15T05:51:37;-3.10;99.90
9951;DHT22;24074;49.254;6.702;2022-12-15T05:54:03;-3.20;99.90
9951;DHT22;24074;49.254;6.702;2022-12-15T05:56:29;-3.30;99.90
9951;DHT22;24074;49.254;6.702;2022-12-15T05:58:55;-3.40;99.90
9951;DHT22;24074;49.254;6.702;2022-12-15T06:01:22;-3.60;99.90
9951;DHT22;24074;49.254;6.702;2022-12-15T06:03:47;-3.70;99.90
9951;DHT22;24074;49.254;6.702;2022-12-15T06:06:13;-3.70;99.90
9951;DHT22;24074;49.254;6.702;2022-12-15T06:08:40;-3.90;99.90
9951;DHT22;24074;49.254;6.702;2022-12-15T06:11:07;-4.00;99.90
9951;DHT22;24074;49.254;6.702;2022-12-15T06:13:34;-4.10;99.90
9951;DHT22;24074;49.254;6.702;2022-12-15T06:16:05;-4.20;99.90
9951;DHT22;24074;49.254;6.702;2022-12-15T06:18:35;-4.10;99.90
9951;DHT22;24074;49.254;6.702;2022-12-15T06:21:03;-4.00;99.90
9951;DHT22;24074;49.254;6.702;2022-12-15T06:23:30;-3.90;99.90
9951;DHT22;24074;49.254;6.702;2022-12-15T06:25:57;-3.80;99.90
9951;DHT22;24074;49.254;6.702;2022-12-15T06:28:23;-3.80;99.90
9951;DHT22;24074;49.254;6.702;2022-12-15T06:30:54;-4.00;99.90
9951;DHT22;24074;49.254;6.702;2022-12-15T06:33:21;-4.20;99.90
9951;DHT22;24074;49.254;6.702;2022-12-15T06:35:47;-4.40;99.90
9951;DHT22;24074;49.254;6.702;2022-12-15T06:38:14;-4.50;99.90
9951;DHT22;24074;49.254;6.702;2022-12-15T06:40:40;-4.50;99.90
9951;DHT22;24074;49.254;6.702;2022-12-15T06:43:06;-4.50;99.90
9951;DHT22;24074;49.254;6.702;2022-12-15T06:45:33;-4.50;99.90
9951;DHT22;24074;49.254;6.702;2022-12-15T06:47:58;-4.60;99.90
9951;DHT22;24074;49.254;6.702;2022-12-15T06:50:24;-4.70;99.90
9951;DHT22;24074;49.254;6.702;2022-12-15T06:52:49;-4.80;99.90
9951;DHT22;24074;49.254;6.702;2022-12-15T06:55:15;-4.80;99.90
9951;DHT22;24074;49.254;6.702;2022-12-15T06:57:40;-4.70;99.90
9951;DHT22;24074;49.254;6.702;2022-12-15T07:00:07;-4.60;99.90
9951;DHT22;24074;49.254;6.702;2022-12-15T07:02:32;-4.70;99.90
9951;DHT22;24074;49.254;6.702;2022-12-15T07:04:58;-4.70;99.90
9951;DHT22;24074;49.254;6.702;2022-12-15T07:07:24;-4.70;99.90
9951;DHT22;24074;49.254;6.702;2022-12-15T07:09:50;-4.60;99.90
9951;DHT22;24074;49.254;6.702;2022-12-15T07:12:16;-4.60;99.90
9951;DHT22;24074;49.254;6.702;2022-12-15T07:14:42;-4.60;99.90
9951;DHT22;24074;49.254;6.702;2022-12-15T07:17:08;-4.60;99.90
9951;DHT22;24074;49.254;6.702;2022-12-15T07:19:35;-4.70;99.90
9951;DHT22;24074;49.254;6.702;2022-12-15T07:22:01;-4.50;99.90
9951;DHT22;24074;49.254;6.702;2022-12-15T07:24:26;-4.40;99.90
9951;DHT22;24074;49.254;6.702;2022-12-15T07:26:52;-4.20;99.90
9951;DHT22;24074;49.254;6.702;2022-12-15T07:29:17;-4.10;99.90
9951;DHT22;24074;49.254;6.702;2022-12-15T07:31:43;-4.10;99.90
9951;DHT22;24074;49.254;6.702;2022-12-15T07:34:08;-4.00;99.90
9951;DHT22;24074;49.254;6.702;2022-12-15T07:36:34;-3.90;99.90
9951;DHT22;24074;49.254;6.702;2022-12-15T07:39:00;-3.80;99.90
9951;DHT22;24074;49.254;6.702;2022-12-15T07:41:27;-3.80;99.90
9951;DHT22;24074;49.254;6.702;2022-12-15T07:43:52;-3.70;99.90
9951;DHT22;24074;49.254;6.702;2022-12-15T07:46:18;-3.50;99.90
9951;DHT22;24074;49.254;6.702;2022-12-15T07:48:44;-3.10;99.90
9951;DHT22;24074;49.254;6.702;2022-12-15T07:51:10;-2.30;99.90
9951;DHT22;24074;49.254;6.702;2022-12-15T07:53:36;-1.60;99.90
9951;DHT22;24074;49.254;6.702;2022-12-15T07:56:03;-1.40;99.90
9951;DHT22;24074;49.254;6.702;2022-12-15T07:58:30;-1.10;99.90
9951;DHT22;24074;49.254;6.702;2022-12-15T08:01:00;-1.00;99.90
9951;DHT22;24074;49.254;6.702;2022-12-15T08:03:26;-0.20;99.90
9951;DHT22;24074;49.254;6.702;2022-12-15T08:05:52;0.40;99.90
9951;DHT22;24074;49.254;6.702;2022-12-15T08:08:18;-0.10;99.90
9951;DHT22;24074;49.254;6.702;2022-12-15T08:10:44;-0.50;99.90
9951;DHT22;24074;49.254;6.702;2022-12-15T08:13:11;0.10;99.90
9951;DHT22;24074;49.254;6.702;2022-12-15T08:15:36;0.90;99.90
9951;DHT22;24074;49.254;6.702;2022-12-15T08:18:04;2.80;99.90
9951;DHT22;24074;49.254;6.702;2022-12-15T08:20:30;4.10;99.90
9951;DHT22;24074;49.254;6.702;2022-12-15T08:22:56;4.40;99.90
9951;DHT22;24074;49.254;6.702;2022-12-15T08:25:22;5.00;99.90
9951;DHT22;24074;49.254;6.702;2022-12-15T08:27:51;4.70;99.90
9951;DHT22;24074;49.254;6.702;2022-12-15T08:30:17;4.60;99.90
9951;DHT22;24074;49.254;6.702;2022-12-15T08:32:43;4.20;99.90
9951;DHT22;24074;49.254;6.702;2022-12-15T08:35:09;3.60;99.90
9951;DHT22;24074;49.254;6.702;2022-12-15T08:37:35;3.40;99.90
9951;DHT22;24074;49.254;6.702;2022-12-15T08:40:00;3.60;99.90
9951;DHT22;24074;49.254;6.702;2022-12-15T08:42:26;3.30;99.90
9951;DHT22;24074;49.254;6.702;2022-12-15T08:44:52;3.30;99.90
9951;DHT22;24074;49.254;6.702;2022-12-15T08:47:17;3.60;99.90
9951;DHT22;24074;49.254;6.702;2022-12-15T08:49:43;4.10;99.90
9951;DHT22;24074;49.254;6.702;2022-12-15T08:52:08;2.70;99.90
9951;DHT22;24074;49.254;6.702;2022-12-15T08:54:34;1.50;99.90
9951;DHT22;24074;49.254;6.702;2022-12-15T08:56:59;2.30;99.90
9951;DHT22;24074;49.254;6.702;2022-12-15T08:59:25;3.70;99.90
9951;DHT22;24074;49.254;6.702;2022-12-15T09:01:51;4.70;99.90
9951;DHT22;24074;49.254;6.702;2022-12-15T09:04:17;5.60;99.90
9951;DHT22;24074;49.254;6.702;2022-12-15T09:06:43;6.80;99.90
9951;DHT22;24074;49.254;6.702;2022-12-15T09:09:11;8.10;99.90
9951;DHT22;24074;49.254;6.702;2022-12-15T09:11:36;7.40;99.90
9951;DHT22;24074;49.254;6.702;2022-12-15T09:14:03;6.50;99.90
9951;DHT22;24074;49.254;6.702;2022-12-15T09:16:28;7.50;99.90
9951;DHT22;24074;49.254;6.702;2022-12-15T09:18:57;7.30;99.90
9951;DHT22;24074;49.254;6.702;2022-12-15T09:21:24;8.20;99.90
9951;DHT22;24074;49.254;6.702;2022-12-15T09:23:52;9.90;99.90
9951;DHT22;24074;49.254;6.702;2022-12-15T09:26:20;9.50;96.70
9951;DHT22;24074;49.254;6.702;2022-12-15T09:28:46;9.30;96.50
9951;DHT22;24074;49.254;6.702;2022-12-15T09:31:19;9.10;97.50
9951;DHT22;24074;49.254;6.702;2022-12-15T09:33:46;8.70;98.60
9951;DHT22;24074;49.254;6.702;2022-12-15T09:36:12;8.00;99.50
9951;DHT22;24074;49.254;6.702;2022-12-15T09:38:39;9.00;98.40
9951;DHT22;24074;49.254;6.702;2022-12-15T09:41:19;7.80;99.00
9951;DHT22;24074;49.254;6.702;2022-12-15T09:49:58;8.50;99.90
9951;DHT22;24074;49.254;6.702;2022-12-15T09:52:05;8.50;99.80
9951;DHT22;24074;49.254;6.702;2022-12-15T09:54:32;8.20;99.80
9951;DHT22;24074;49.254;6.702;2022-12-15T10:08:02;7.70;99.90
9951;DHT22;24074;49.254;6.702;2022-12-15T10:10:37;5.80;99.90
9951;DHT22;24074;49.254;6.702;2022-12-15T10:13:10;5.60;99.90
9951;DHT22;24074;49.254;6.702;2022-12-15T10:15:49;5.90;99.90
9951;DHT22;24074;49.254;6.702;2022-12-15T10:18:42;7.40;99.90
9951;DHT22;24074;49.254;6.702;2022-12-15T10:21:12;6.90;99.90
9951;DHT22;24074;49.254;6.702;2022-12-15T10:23:38;6.90;99.90
9951;DHT22;24074;49.254;6.702;2022-12-15T10:26:17;6.50;99.90
9951;DHT22;24074;49.254;6.702;2022-12-15T10:31:34;5.80;99.90
9951;DHT22;24074;49.254;6.702;2022-12-15T10:34:08;6.10;99.90
9951;DHT22;24074;49.254;6.702;2022-12-15T10:36:35;6.60;99.90
9951;DHT22;24074;49.254;6.702;2022-12-15T10:39:01;7.70;99.90
9951;DHT22;24074;49.254;6.702;2022-12-15T10:41:31;8.30;99.90
9951;DHT22;24074;49.254;6.702;2022-12-15T10:43:57;8.10;99.90
9951;DHT22;24074;49.254;6.702;2022-12-15T10:46:28;7.20;99.90
9951;DHT22;24074;49.254;6.702;2022-12-15T10:48:59;7.00;99.90
9951;DHT22;24074;49.254;6.702;2022-12-15T10:52:03;6.30;99.90
9951;DHT22;24074;49.254;6.702;2022-12-15T10:54:34;4.70;99.90
9951;DHT22;24074;49.254;6.702;2022-12-15T10:57:21;3.10;99.90
9951;DHT22;24074;49.254;6.702;2022-12-15T10:59:47;4.50;99.90
9951;DHT22;24074;49.254;6.702;2022-12-15T11:04:59;5.20;99.90
9951;DHT22;24074;49.254;6.702;2022-12-15T11:07:30;5.20;99.90
9951;DHT22;24074;49.254;6.702;2022-12-15T11:09:58;4.00;99.90
9951;DHT22;24074;49.254;6.702;2022-12-15T11:12:28;4.40;99.90
9951;DHT22;24074;49.254;6.702;2022-12-15T11:18:00;5.10;99.90
9951;DHT22;24074;49.254;6.702;2022-12-15T11:27:32;1.50;99.90
9951;DHT22;24074;49.254;6.702;2022-12-15T11:32:41;0.80;99.90
9951;DHT22;24074;49.254;6.702;2022-12-15T11:38:24;1.30;99.90
9951;DHT22;24074;49.254;6.702;2022-12-15T11:40:55;1.40;99.90
9951;DHT22;24074;49.254;6.702;2022-12-15T11:43:33;1.80;99.90
9951;DHT22;24074;49.254;6.702;2022-12-15T11:49:04;1.40;99.90
9951;DHT22;24074;49.254;6.702;2022-12-15T11:51:43;1.10;99.90
9951;DHT22;24074;49.254;6.702;2022-12-15T12:00:06;1.20;99.90
9951;DHT22;24074;49.254;6.702;2022-12-15T12:02:39;1.30;99.90
9951;DHT22;24074;49.254;6.702;2022-12-15T12:11:04;1.30;99.90
9951;DHT22;24074;49.254;6.702;2022-12-15T12:13:42;1.10;99.90
9951;DHT22;24074;49.254;6.702;2022-12-15T12:18:51;1.20;99.90
9951;DHT22;24074;49.254;6.702;2022-12-15T12:21:23;1.50;99.90
9951;DHT22;24074;49.254;6.702;2022-12-15T12:26:31;1.80;99.90
9951;DHT22;24074;49.254;6.702;2022-12-15T12:29:32;1.80;99.90
9951;DHT22;24074;49.254;6.702;2022-12-15T12:32:36;2.00;99.90
9951;DHT22;24074;49.254;6.702;2022-12-15T12:35:31;2.10;99.90
9951;DHT22;24074;49.254;6.702;2022-12-15T12:38:04;2.00;99.90
9951;DHT22;24074;49.254;6.702;2022-12-15T12:43:05;1.80;99.90
9951;DHT22;24074;49.254;6.702;2022-12-15T12:45:56;2.10;99.90
9951;DHT22;24074;49.254;6.702;2022-12-15T12:48:37;2.10;99.90
9951;DHT22;24074;49.254;6.702;2022-12-15T12:51:24;2.10;99.90
9951;DHT22;24074;49.254;6.702;2022-12-15T12:53:52;1.70;99.90
9951;DHT22;24074;49.254;6.702;2022-12-15T12:56:38;1.90;99.90
9951;DHT22;24074;49.254;6.702;2022-12-15T13:01:57;1.50;99.90
9951;DHT22;24074;49.254;6.702;2022-12-15T13:09:21;1.60;99.90
9951;DHT22;24074;49.254;6.702;2022-12-15T13:14:19;1.50;99.90
9951;DHT22;24074;49.254;6.702;2022-12-15T13:16:46;1.50;99.90
9951;DHT22;24074;49.254;6.702;2022-12-15T13:19:12;1.30;99.90
9951;DHT22;24074;49.254;6.702;2022-12-15T13:26:44;1.10;99.90
9951;DHT22;24074;49.254;6.702;2022-12-15T13:29:13;1.20;99.90
9951;DHT22;24074;49.254;6.702;2022-12-15T13:31:46;1.20;99.90
9951;DHT22;24074;49.254;6.702;2022-12-15T13:34:23;1.10;99.90
9951;DHT22;24074;49.254;6.702;2022-12-15T13:36:53;1.00;99.90
9951;DHT22;24074;49.254;6.702;2022-12-15T13:44:31;1.20;99.90
9951;DHT22;24074;49.254;6.702;2022-12-15T13:47:12;1.10;99.90
9951;DHT22;24074;49.254;6.702;2022-12-15T13:49:46;1.00;99.90
9951;DHT22;24074;49.254;6.702;2022-12-15T13:52:28;1.00;99.90
9951;DHT22;24074;49.254;6.702;2022-12-15T13:55:05;1.10;99.90
9951;DHT22;24074;49.254;6.702;2022-12-15T13:57:33;1.10;99.90
9951;DHT22;24074;49.254;6.702;2022-12-15T14:00:08;1.00;99.90
9951;DHT22;24074;49.254;6.702;2022-12-15T14:02:43;1.00;99.90
9951;DHT22;24074;49.254;6.702;2022-12-15T14:05:21;1.00;99.90
9951;DHT22;24074;49.254;6.702;2022-12-15T14:13:26;1.30;99.90
9951;DHT22;24074;49.254;6.702;2022-12-15T14:15:57;1.50;99.90
9951;DHT22;24074;49.254;6.702;2022-12-15T14:18:30;1.60;99.90
9951;DHT22;24074;49.254;6.702;2022-12-15T14:20:57;1.70;99.90
9951;DHT22;24074;49.254;6.702;2022-12-15T14:23:26;1.70;99.90
9951;DHT22;24074;49.254;6.702;2022-12-15T14:26:03;1.80;99.90
9951;DHT22;24074;49.254;6.702;2022-12-15T14:28:32;1.70;99.90
9951;DHT22;24074;49.254;6.702;2022-12-15T14:31:06;1.60;99.90
9951;DHT22;24074;49.254;6.702;2022-12-15T14:33:36;1.50;99.90
9951;DHT22;24074;49.254;6.702;2022-12-15T14:36:07;1.40;99.90
9951;DHT22;24074;49.254;6.702;2022-12-15T14:38:50;1.20;99.90
9951;DHT22;24074;49.254;6.702;2022-12-15T14:41:24;1.10;99.90
9951;DHT22;24074;49.254;6.702;2022-12-15T14:43:55;1.00;99.90
9951;DHT22;24074;49.254;6.702;2022-12-15T14:46:24;0.80;99.90
9951;DHT22;24074;49.254;6.702;2022-12-15T14:48:54;0.80;99.90
9951;DHT22;24074;49.254;6.702;2022-12-15T14:51:21;0.70;99.90
9951;DHT22;24074;49.254;6.702;2022-12-15T14:53:50;0.70;99.90
9951;DHT22;24074;49.254;6.702;2022-12-15T14:56:21;0.60;99.90
9951;DHT22;24074;49.254;6.702;2022-12-15T14:58:56;0.60;99.90
9951;DHT22;24074;49.254;6.702;2022-12-15T15:01:32;0.50;99.90
9951;DHT22;24074;49.254;6.702;2022-12-15T15:04:00;0.40;99.90
9951;DHT22;24074;49.254;6.702;2022-12-15T15:06:36;0.30;99.90
9951;DHT22;24074;49.254;6.702;2022-12-15T15:09:23;0.20;99.90
9951;DHT22;24074;49.254;6.702;2022-12-15T15:11:56;0.10;99.90
9951;DHT22;24074;49.254;6.702;2022-12-15T15:14:31;0.00;99.90
9951;DHT22;24074;49.254;6.702;2022-12-15T15:19:56;-0.10;99.90
9951;DHT22;24074;49.254;6.702;2022-12-15T15:22:36;-0.10;99.90
9951;DHT22;24074;49.254;6.702;2022-12-15T15:26:06;-0.20;99.90
9951;DHT22;24074;49.254;6.702;2022-12-15T15:30:51;-0.30;99.90
9951;DHT22;24074;49.254;6.702;2022-12-15T15:33:17;-0.40;99.90
9951;DHT22;24074;49.254;6.702;2022-12-15T15:35:48;-0.50;99.90
9951;DHT22;24074;49.254;6.702;2022-12-15T15:38:22;-0.60;99.90
9951;DHT22;24074;49.254;6.702;2022-12-15T15:40:53;-0.60;99.90
9951;DHT22;24074;49.254;6.702;2022-12-15T15:43:19;-0.70;99.90
9951;DHT22;24074;49.254;6.702;2022-12-15T15:45:46;-0.80;99.90
9951;DHT22;24074;49.254;6.702;2022-12-15T15:48:24;-0.90;99.90
9951;DHT22;24074;49.254;6.702;2022-12-15T15:50:51;-0.90;99.90
9951;DHT22;24074;49.254;6.702;2022-12-15T15:53:20;-0.90;99.90
9951;DHT22;24074;49.254;6.702;2022-12-15T15:55:47;-0.90;99.90
9951;DHT22;24074;49.254;6.702;2022-12-15T15:58:14;-0.90;99.90
9951;DHT22;24074;49.254;6.702;2022-12-15T16:00:40;-0.90;99.90
9951;DHT22;24074;49.254;6.702;2022-12-15T16:03:05;-0.90;99.90
9951;DHT22;24074;49.254;6.702;2022-12-15T16:05:31;-1.00;99.90
9951;DHT22;24074;49.254;6.702;2022-12-15T16:07:57;-1.00;99.90
9951;DHT22;24074;49.254;6.702;2022-12-15T16:10:24;-1.00;99.90
9951;DHT22;24074;49.254;6.702;2022-12-15T16:12:52;-1.00;99.90
9951;DHT22;24074;49.254;6.702;2022-12-15T16:15:24;-1.00;99.90
9951;DHT22;24074;49.254;6.702;2022-12-15T16:17:53;-1.00;99.90
9951;DHT22;24074;49.254;6.702;2022-12-15T16:20:21;-1.00;99.90
9951;DHT22;24074;49.254;6.702;2022-12-15T16:22:51;-1.10;99.90
9951;DHT22;24074;49.254;6.702;2022-12-15T16:25:30;-1.10;99.90
9951;DHT22;24074;49.254;6.702;2022-12-15T16:27:56;-1.10;99.90
9951;DHT22;24074;49.254;6.702;2022-12-15T16:30:24;-1.20;99.90
9951;DHT22;24074;49.254;6.702;2022-12-15T16:32:50;-1.20;99.90
9951;DHT22;24074;49.254;6.702;2022-12-15T16:35:17;-1.30;99.90
9951;DHT22;24074;49.254;6.702;2022-12-15T16:37:43;-1.30;99.90
9951;DHT22;24074;49.254;6.702;2022-12-15T16:40:19;-1.20;99.90
9951;DHT22;24074;49.254;6.702;2022-12-15T16:42:59;-1.20;99.90
9951;DHT22;24074;49.254;6.702;2022-12-15T16:45:28;-1.20;99.90
9951;DHT22;24074;49.254;6.702;2022-12-15T16:47:54;-1.20;99.90
9951;DHT22;24074;49.254;6.702;2022-12-15T16:50:24;-1.20;99.90
9951;DHT22;24074;49.254;6.702;2022-12-15T16:52:52;-1.20;99.90
9951;DHT22;24074;49.254;6.702;2022-12-15T16:55:26;-1.20;99.90
9951;DHT22;24074;49.254;6.702;2022-12-15T16:58:01;-1.20;99.90
9951;DHT22;24074;49.254;6.702;2022-12-15T17:00:30;-1.20;99.90
9951;DHT22;24074;49.254;6.702;2022-12-15T17:02:56;-1.20;99.90
9951;DHT22;24074;49.254;6.702;2022-12-15T17:05:28;-1.10;99.90
9951;DHT22;24074;49.254;6.702;2022-12-15T17:07:56;-1.10;99.90
9951;DHT22;24074;49.254;6.702;2022-12-15T17:10:24;-1.20;99.90
9951;DHT22;24074;49.254;6.702;2022-12-15T17:12:51;-1.20;99.90
9951;DHT22;24074;49.254;6.702;2022-12-15T17:15:20;-1.20;99.90
9951;DHT22;24074;49.254;6.702;2022-12-15T17:17:47;-1.20;99.90
9951;DHT22;24074;49.254;6.702;2022-12-15T17:20:19;-1.20;99.90
9951;DHT22;24074;49.254;6.702;2022-12-15T17:22:49;-1.20;99.90
9951;DHT22;24074;49.254;6.702;2022-12-15T17:25:19;-1.30;99.90
9951;DHT22;24074;49.254;6.702;2022-12-15T17:27:46;-1.30;99.90
9951;DHT22;24074;49.254;6.702;2022-12-15T17:30:13;-1.30;99.90
9951;DHT22;24074;49.254;6.702;2022-12-15T17:32:40;-1.30;99.90
9951;DHT22;24074;49.254;6.702;2022-12-15T17:35:06;-1.40;99.90
9951;DHT22;24074;49.254;6.702;2022-12-15T17:37:32;-1.50;99.90
9951;DHT22;24074;49.254;6.702;2022-12-15T17:39:58;-1.40;99.90
9951;DHT22;24074;49.254;6.702;2022-12-15T17:42:24;-1.50;99.90
9951;DHT22;24074;49.254;6.702;2022-12-15T17:44:49;-1.50;99.90
9951;DHT22;24074;49.254;6.702;2022-12-15T17:47:15;-1.50;99.90
9951;DHT22;24074;49.254;6.702;2022-12-15T17:49:41;-1.50;99.90
9951;DHT22;24074;49.254;6.702;2022-12-15T17:52:27;-1.50;99.90
9951;DHT22;24074;49.254;6.702;2022-12-15T17:54:54;-1.50;99.90
9951;DHT22;24074;49.254;6.702;2022-12-15T17:57:23;-1.60;99.90
9951;DHT22;24074;49.254;6.702;2022-12-15T17:59:51;-1.60;99.90
9951;DHT22;24074;49.254;6.702;2022-12-15T18:02:17;-1.60;99.90
9951;DHT22;24074;49.254;6.702;2022-12-15T18:04:43;-1.60;99.90
9951;DHT22;24074;49.254;6.702;2022-12-15T18:07:20;-1.60;99.90
9951;DHT22;24074;49.254;6.702;2022-12-15T18:09:48;-1.60;99.90
9951;DHT22;24074;49.254;6.702;2022-12-15T18:12:22;-1.60;99.90